createdAt,value
2023-05-19T00:02:39.657Z,12.07
2023-05-19T00:05:45.614Z,12.05
2023-05-19T00:08:49.625Z,12.02
2023-05-19T00:11:52.322Z,12.03
2023-05-19T00:14:54.784Z,12.07
2023-05-19T00:17:57.416Z,12.07
2023-05-19T00:20:59.851Z,12.02
2023-05-19T00:24:02.666Z,11.98
2023-05-19T00:27:05.032Z,11.97
2023-05-19T00:30:08.323Z,11.92
2023-05-19T00:33:10.721Z,11.96
2023-05-19T00:36:13.580Z,11.97
2023-05-19T00:39:15.965Z,11.94
2023-05-19T00:42:18.678Z,11.84
2023-05-19T00:45:21.018Z,11.77
2023-05-19T00:48:25.154Z,11.78
2023-05-19T00:51:28.205Z,11.75
2023-05-19T00:54:31.173Z,11.71
2023-05-19T00:57:33.639Z,11.73
2023-05-19T01:00:37.124Z,11.72
2023-05-19T01:03:40.294Z,11.66
2023-05-19T01:06:43.845Z,11.66
2023-05-19T01:09:47.115Z,11.61
2023-05-19T01:12:50.063Z,11.61
2023-05-19T01:15:58.439Z,11.60
2023-05-19T01:19:19.714Z,11.58
2023-05-19T01:22:55.159Z,11.56
2023-05-19T01:26:00.815Z,11.53
2023-05-19T01:29:09.374Z,11.55
2023-05-19T01:32:12.283Z,11.55
2023-05-19T01:35:15.688Z,11.54
2023-05-19T01:38:20.496Z,11.58
2023-05-19T01:41:23.211Z,11.55
2023-05-19T01:44:26.980Z,11.53
2023-05-19T01:47:29.587Z,11.55
2023-05-19T01:50:32.752Z,11.56
2023-05-19T01:53:35.651Z,11.59
2023-05-19T01:56:45.919Z,11.60
2023-05-19T01:59:54.043Z,11.60
2023-05-19T02:03:07.815Z,11.60
2023-05-19T02:06:10.534Z,11.60
2023-05-19T02:09:12.781Z,11.60
2023-05-19T02:12:15.378Z,11.61
2023-05-19T02:15:21.504Z,11.59
2023-05-19T02:18:25.155Z,11.61
2023-05-19T02:21:27.849Z,11.67
2023-05-19T02:24:30.919Z,11.65
2023-05-19T02:27:35.369Z,11.63
2023-05-19T02:30:38.181Z,11.60
2023-05-19T02:33:41.525Z,11.57
2023-05-19T02:36:44.484Z,11.55
2023-05-19T02:39:47.132Z,11.54
2023-05-19T02:42:49.431Z,11.54
2023-05-19T02:45:53.041Z,11.55
2023-05-19T02:48:55.414Z,11.54
2023-05-19T02:51:57.973Z,11.52
2023-05-19T02:55:00.631Z,11.61
2023-05-19T02:58:03.314Z,11.62
2023-05-19T03:01:05.752Z,11.63
2023-05-19T03:04:08.448Z,11.65
2023-05-19T03:07:10.914Z,11.64
2023-05-19T03:10:13.769Z,11.63
2023-05-19T03:13:17.114Z,11.63
2023-05-19T03:16:19.772Z,11.62
2023-05-19T03:19:22.323Z,11.64
2023-05-19T03:22:25.198Z,11.64
2023-05-19T03:25:27.660Z,11.68
2023-05-19T03:28:30.892Z,11.68
2023-05-19T03:31:33.350Z,11.72
2023-05-19T03:34:36.519Z,11.76
2023-05-19T03:37:39.271Z,11.83
2023-05-19T03:40:42.004Z,11.91
2023-05-19T03:43:44.637Z,11.97
2023-05-19T03:46:47.315Z,12.06
2023-05-19T03:49:51.836Z,12.11
2023-05-19T03:52:55.708Z,12.22
2023-05-19T03:55:59.483Z,12.34
2023-05-19T03:59:02.119Z,12.42
2023-05-19T04:02:04.678Z,12.52
2023-05-19T04:05:07.935Z,12.61
2023-05-19T04:08:10.464Z,12.68
2023-05-19T04:11:13.149Z,12.76
2023-05-19T04:14:16.082Z,12.82
2023-05-19T04:17:18.877Z,12.95
2023-05-19T04:20:21.246Z,13.03
2023-05-19T04:23:23.871Z,13.18
2023-05-19T04:26:26.908Z,13.19
2023-05-19T04:29:29.651Z,13.25
2023-05-19T04:32:32.040Z,13.31
2023-05-19T04:35:35.317Z,13.46
2023-05-19T04:38:39.840Z,13.66
2023-05-19T04:41:44.809Z,13.73
2023-05-19T04:44:49.433Z,13.94
2023-05-19T04:47:52.777Z,14.07
2023-05-19T04:50:55.257Z,14.23
2023-05-19T04:53:58.175Z,14.42
2023-05-19T04:57:01.229Z,14.63
2023-05-19T05:00:08.293Z,14.85
2023-05-19T05:03:14.683Z,15.03
2023-05-19T05:06:17.740Z,15.26
2023-05-19T05:09:20.212Z,15.51
2023-05-19T05:12:24.435Z,15.33
2023-05-19T05:15:28.840Z,15.13
2023-05-19T05:18:32.850Z,14.97
2023-05-19T05:21:35.370Z,15.13
2023-05-19T05:24:38.348Z,15.24
2023-05-19T05:27:40.858Z,15.21
2023-05-19T05:30:45.001Z,15.33
2023-05-19T05:33:49.139Z,15.52
2023-05-19T05:36:54.024Z,15.76
2023-05-19T05:39:57.042Z,16.32
2023-05-19T05:43:00.180Z,16.62
2023-05-19T05:46:03.048Z,16.83
2023-05-19T05:49:06.544Z,17.03
2023-05-19T05:52:11.015Z,17.26
2023-05-19T05:55:14.384Z,16.84
2023-05-19T05:58:17.044Z,16.58
2023-05-19T06:01:21.068Z,16.81
2023-05-19T06:04:25.658Z,17.25
2023-05-19T06:07:29.976Z,17.21
2023-05-19T06:10:33.336Z,17.71
2023-05-19T06:13:36.463Z,18.01
2023-05-19T06:16:40.121Z,18.17
2023-05-19T06:19:43.250Z,18.35
2023-05-19T06:22:45.897Z,18.77
2023-05-19T06:25:48.911Z,19.13
2023-05-19T06:28:52.274Z,19.64
2023-05-19T06:31:54.778Z,19.69
2023-05-19T06:34:57.607Z,19.77
2023-05-19T06:38:01.040Z,19.54
2023-05-19T06:41:03.810Z,18.91
2023-05-19T06:44:07.226Z,18.87
2023-05-19T06:47:10.585Z,19.08
2023-05-19T06:50:13.687Z,19.09
2023-05-19T06:53:17.220Z,19.99
2023-05-19T06:56:20.146Z,22.27
2023-05-19T06:59:23.169Z,24.49
2023-05-19T07:02:26.379Z,24.27
2023-05-19T07:05:29.102Z,22.70
2023-05-19T07:08:31.977Z,21.44
2023-05-19T07:11:35.582Z,21.19
2023-05-19T07:14:38.979Z,22.09
2023-05-19T07:17:42.105Z,22.28
2023-05-19T07:20:44.583Z,21.85
2023-05-19T07:23:47.227Z,22.13
2023-05-19T07:26:49.558Z,22.97
2023-05-19T07:29:52.205Z,24.24
2023-05-19T07:32:54.499Z,25.97
2023-05-19T07:35:57.131Z,28.39
2023-05-19T07:38:59.533Z,30.98
2023-05-19T07:42:02.481Z,31.54
2023-05-19T07:45:04.984Z,31.57
2023-05-19T07:48:08.052Z,32.23
2023-05-19T07:51:11.395Z,32.37
2023-05-19T07:54:14.099Z,32.10
2023-05-19T07:57:16.661Z,31.26
2023-05-19T08:00:19.362Z,32.07
2023-05-19T08:03:23.694Z,30.97
2023-05-19T08:06:26.348Z,27.70
2023-05-19T08:09:28.997Z,29.55
2023-05-19T08:12:33.278Z,30.66
2023-05-19T08:15:36.791Z,29.56
2023-05-19T08:18:39.198Z,29.97
2023-05-19T08:21:42.494Z,30.81
2023-05-19T08:24:45.155Z,28.38
2023-05-19T08:27:47.784Z,25.63
2023-05-19T08:30:51.028Z,24.44
2023-05-19T08:33:53.730Z,24.47
2023-05-19T08:36:57.802Z,23.76
2023-05-19T08:40:00.799Z,23.22
2023-05-19T08:43:03.666Z,25.83
2023-05-19T08:46:08.201Z,29.48
2023-05-19T08:49:14.162Z,31.53
2023-05-19T08:52:27.627Z,32.48
2023-05-19T08:55:45.029Z,30.37
2023-05-19T08:58:48.848Z,32.43
2023-05-19T09:01:51.651Z,32.53
2023-05-19T09:04:55.970Z,28.75
2023-05-19T09:07:58.451Z,25.84
2023-05-19T09:11:01.162Z,24.01
2023-05-19T09:14:06.414Z,22.77
2023-05-19T09:17:09.820Z,22.90
2023-05-19T09:20:12.370Z,22.84
2023-05-19T09:23:16.549Z,23.27
2023-05-19T09:26:19.073Z,23.29
2023-05-19T09:29:21.717Z,23.59
2023-05-19T09:32:25.151Z,24.09
2023-05-19T09:35:27.832Z,23.11
2023-05-19T09:38:30.383Z,22.66
2023-05-19T09:41:33.124Z,22.14
2023-05-19T09:44:35.480Z,22.20
2023-05-19T09:47:39.023Z,22.21
2023-05-19T09:50:42.764Z,22.23
2023-05-19T09:53:46.468Z,22.15
2023-05-19T09:56:53.209Z,22.24
2023-05-19T09:59:57.104Z,22.54
2023-05-19T10:03:00.518Z,22.48
2023-05-19T10:06:04.660Z,22.24
2023-05-19T10:09:07.724Z,22.32
2023-05-19T10:12:11.111Z,22.97
2023-05-19T10:15:14.342Z,23.43
2023-05-19T10:18:18.179Z,23.74
2023-05-19T10:21:20.916Z,23.87
2023-05-19T10:24:23.582Z,23.50
2023-05-19T10:27:28.149Z,22.83
2023-05-19T10:30:36.017Z,23.02
2023-05-19T10:33:41.061Z,23.43
2023-05-19T10:36:48.633Z,23.11
2023-05-19T10:39:51.328Z,23.13
2023-05-19T10:43:01.384Z,23.66
2023-05-19T10:46:04.376Z,23.80
2023-05-19T10:49:07.918Z,24.28
2023-05-19T10:52:21.634Z,24.44
2023-05-19T10:55:43.118Z,24.22
2023-05-19T10:58:45.392Z,23.55
2023-05-19T11:01:48.377Z,22.93
2023-05-19T11:04:51.960Z,22.85
2023-05-19T11:07:56.203Z,22.91
2023-05-19T11:11:12.008Z,23.21
2023-05-19T11:14:17.113Z,23.47
2023-05-19T11:17:22.074Z,23.42
2023-05-19T11:20:25.855Z,23.55
2023-05-19T11:23:28.317Z,24.17
2023-05-19T11:26:41.477Z,24.08
2023-05-19T11:29:43.925Z,24.28
2023-05-19T11:32:49.742Z,24.27
2023-05-19T11:35:53.325Z,23.79
2023-05-19T11:38:57.067Z,23.05
2023-05-19T11:41:59.408Z,23.11
2023-05-19T11:45:02.224Z,23.71
2023-05-19T11:48:05.421Z,24.14
2023-05-19T11:51:08.249Z,24.28
2023-05-19T11:54:11.620Z,24.10
2023-05-19T11:57:14.278Z,23.67
2023-05-19T12:00:16.690Z,23.88
2023-05-19T12:03:21.634Z,23.93
2023-05-19T12:06:25.931Z,24.65
2023-05-19T12:09:28.584Z,25.08
2023-05-19T12:12:31.217Z,25.15
2023-05-19T12:15:36.768Z,25.08
2023-05-19T12:18:40.383Z,25.04
2023-05-19T12:21:43.347Z,24.45
2023-05-19T12:24:46.813Z,24.53
2023-05-19T12:27:49.788Z,23.60
2023-05-19T12:30:54.091Z,23.32
2023-05-19T12:33:56.908Z,23.81
2023-05-19T12:36:59.361Z,23.74
2023-05-19T12:40:03.587Z,23.97
2023-05-19T12:43:07.856Z,24.05
2023-05-19T12:46:11.502Z,24.30
2023-05-19T12:49:13.951Z,24.35
2023-05-19T12:52:16.859Z,24.64
2023-05-19T12:55:20.542Z,24.60
2023-05-19T12:58:24.198Z,24.68
2023-05-19T13:01:26.686Z,25.01
2023-05-19T13:04:29.482Z,24.63
2023-05-19T13:07:32.218Z,24.45
2023-05-19T13:10:35.898Z,24.47
2023-05-19T13:13:38.330Z,24.19
2023-05-19T13:16:41.199Z,24.40
2023-05-19T13:19:43.606Z,24.18
2023-05-19T13:22:47.108Z,24.56
2023-05-19T13:25:50.698Z,24.29
2023-05-19T13:28:53.479Z,24.72
2023-05-19T13:31:55.880Z,24.60
2023-05-19T13:34:58.819Z,24.53
2023-05-19T13:38:01.201Z,24.28
2023-05-19T13:41:03.828Z,23.96
2023-05-19T13:44:06.291Z,23.62
2023-05-19T13:47:09.024Z,23.98
2023-05-19T13:50:12.308Z,24.22
2023-05-19T13:53:15.144Z,24.36
2023-05-19T13:56:17.517Z,24.15
2023-05-19T13:59:21.592Z,24.41
2023-05-19T14:02:24.360Z,24.16
2023-05-19T14:05:28.880Z,24.00
2023-05-19T14:08:31.391Z,24.13
2023-05-19T14:11:34.179Z,24.48
2023-05-19T14:14:36.746Z,24.63
2023-05-19T14:17:39.444Z,24.47
2023-05-19T14:20:41.859Z,24.28
2023-05-19T14:23:44.487Z,24.42
2023-05-19T14:26:46.765Z,24.55
2023-05-19T14:29:50.010Z,24.42
2023-05-19T14:32:52.995Z,24.21
2023-05-19T14:35:58.858Z,23.98
2023-05-19T14:39:01.558Z,23.73
2023-05-19T14:42:04.246Z,23.65
2023-05-19T14:45:06.951Z,23.74
2023-05-19T14:48:11.961Z,24.02
2023-05-19T14:51:14.508Z,24.06
2023-05-19T14:54:17.198Z,24.06
2023-05-19T14:57:19.661Z,24.22
2023-05-19T15:00:22.396Z,24.31
2023-05-19T15:03:24.975Z,24.19
2023-05-19T15:06:27.873Z,24.00
2023-05-19T15:09:30.218Z,24.11
2023-05-19T15:12:33.162Z,24.08
2023-05-19T15:15:35.785Z,24.03
2023-05-19T15:18:38.478Z,23.86
2023-05-19T15:21:41.224Z,23.54
2023-05-19T15:24:43.982Z,23.29
2023-05-19T15:27:47.650Z,23.23
2023-05-19T15:30:50.530Z,23.34
2023-05-19T15:33:53.022Z,23.09
2023-05-19T15:36:55.816Z,23.06
2023-05-19T15:39:58.218Z,22.99
2023-05-19T15:43:01.254Z,22.94
2023-05-19T15:46:13.333Z,23.27
2023-05-19T15:49:17.992Z,23.27
2023-05-19T15:52:20.497Z,22.73
2023-05-19T15:55:23.232Z,22.73
2023-05-19T15:58:25.873Z,22.62
2023-05-19T16:01:28.957Z,22.70
2023-05-19T16:04:31.670Z,22.71
2023-05-19T16:07:34.105Z,22.73
2023-05-19T16:10:36.813Z,22.69
2023-05-19T16:13:39.112Z,22.64
2023-05-19T16:16:41.869Z,22.70
2023-05-19T16:19:44.448Z,22.68
2023-05-19T16:22:47.165Z,22.61
2023-05-19T16:25:49.545Z,22.61
2023-05-19T16:28:52.171Z,22.67
2023-05-19T16:31:54.517Z,22.68
2023-05-19T16:34:57.220Z,22.65
2023-05-19T16:37:59.609Z,22.65
2023-05-19T16:41:04.407Z,22.51
2023-05-19T16:44:07.721Z,22.40
2023-05-19T16:47:10.594Z,22.23
2023-05-19T16:50:13.122Z,22.11
2023-05-19T16:53:16.074Z,21.95
2023-05-19T16:56:18.453Z,21.81
2023-05-19T16:59:21.097Z,21.57
2023-05-19T17:02:23.619Z,21.52
2023-05-19T17:05:27.232Z,21.31
2023-05-19T17:08:29.698Z,21.17
2023-05-19T17:11:32.454Z,20.98
2023-05-19T17:14:35.029Z,20.83
2023-05-19T17:17:37.803Z,20.69
2023-05-19T17:20:40.344Z,20.57
2023-05-19T17:23:43.012Z,20.47
2023-05-19T17:26:45.647Z,20.35
2023-05-19T17:29:48.285Z,20.25
2023-05-19T17:32:51.083Z,20.08
2023-05-19T17:35:53.674Z,19.95
2023-05-19T17:38:56.186Z,19.81
2023-05-19T17:41:58.798Z,19.67
2023-05-19T17:45:01.274Z,19.51
2023-05-19T17:48:04.762Z,19.36
2023-05-19T17:51:07.511Z,19.23
2023-05-19T17:54:10.473Z,19.10
2023-05-19T17:57:15.835Z,18.97
2023-05-19T18:00:18.726Z,18.83
2023-05-19T18:03:22.111Z,18.67
2023-05-19T18:06:25.463Z,18.52
2023-05-19T18:09:29.337Z,18.39
2023-05-19T18:12:31.736Z,18.25
2023-05-19T18:15:34.742Z,18.12
2023-05-19T18:18:40.046Z,17.98
2023-05-19T18:21:42.769Z,17.84
2023-05-19T18:24:45.140Z,17.69
2023-05-19T18:27:47.854Z,17.59
2023-05-19T18:31:00.172Z,17.47
2023-05-19T18:34:04.336Z,17.34
2023-05-19T18:37:06.637Z,17.19
2023-05-19T18:40:09.451Z,17.07
2023-05-19T18:43:11.914Z,16.97
2023-05-19T18:46:14.533Z,16.88
2023-05-19T18:49:17.209Z,16.78
2023-05-19T18:52:21.687Z,16.71
2023-05-19T18:55:24.038Z,16.63
2023-05-19T18:58:26.632Z,16.56
2023-05-19T19:01:29.054Z,16.48
2023-05-19T19:04:31.829Z,16.41
2023-05-19T19:07:34.218Z,16.52
2023-05-19T19:10:40.349Z,16.44
2023-05-19T19:13:43.652Z,16.35
2023-05-19T19:16:46.369Z,16.31
2023-05-19T19:19:48.984Z,16.29
2023-05-19T19:22:52.136Z,16.22
2023-05-19T19:25:56.469Z,16.16
2023-05-19T19:28:59.248Z,16.11
2023-05-19T19:32:02.016Z,16.06
2023-05-19T19:35:04.947Z,16.01
2023-05-19T19:38:07.310Z,15.99
2023-05-19T19:41:10.596Z,15.95
2023-05-19T19:44:13.704Z,15.90
2023-05-19T19:47:16.481Z,15.90
2023-05-19T19:50:18.967Z,15.89
2023-05-19T19:53:22.067Z,15.90
2023-05-19T19:56:26.143Z,15.88
2023-05-19T19:59:29.406Z,15.87
2023-05-19T20:02:32.602Z,15.88
2023-05-19T20:05:37.123Z,15.89
2023-05-19T20:08:39.499Z,15.93
2023-05-19T20:11:42.160Z,15.94
2023-05-19T20:14:44.481Z,15.98
2023-05-19T20:17:47.219Z,16.00
2023-05-19T20:20:49.604Z,16.05
2023-05-19T20:23:52.306Z,16.08
2023-05-19T20:26:54.704Z,16.08
2023-05-19T20:29:57.480Z,16.15
2023-05-19T20:33:00.021Z,16.15
2023-05-19T20:36:02.824Z,16.18
2023-05-19T20:39:07.027Z,16.19
2023-05-19T20:42:09.762Z,16.18
2023-05-19T20:45:12.198Z,16.18
2023-05-19T20:48:15.835Z,16.25
2023-05-19T20:51:18.368Z,16.22
2023-05-19T20:54:21.330Z,16.20
2023-05-19T20:57:23.961Z,16.19
2023-05-19T21:00:27.426Z,16.20
2023-05-19T21:03:32.100Z,16.23
2023-05-19T21:06:34.882Z,16.20
2023-05-19T21:09:37.339Z,16.16
2023-05-19T21:12:40.163Z,16.07
2023-05-19T21:15:42.586Z,16.00
2023-05-19T21:18:45.356Z,15.86
2023-05-19T21:21:47.983Z,15.73
2023-05-19T21:24:50.716Z,15.61
2023-05-19T21:27:53.270Z,15.51
2023-05-19T21:30:56.098Z,15.49
2023-05-19T21:33:58.921Z,15.38
2023-05-19T21:37:01.556Z,15.39
2023-05-19T21:40:04.058Z,15.28
2023-05-19T21:43:06.810Z,15.14
2023-05-19T21:46:09.341Z,15.13
2023-05-19T21:49:12.110Z,14.99
2023-05-19T21:52:14.431Z,14.92
2023-05-19T21:55:17.168Z,14.90
2023-05-19T21:58:19.666Z,14.82
2023-05-19T22:01:22.688Z,14.78
2023-05-19T22:04:25.446Z,14.70
2023-05-19T22:07:28.643Z,14.64
2023-05-19T22:10:32.528Z,14.61
2023-05-19T22:13:37.488Z,14.61
2023-05-19T22:16:40.287Z,14.56
2023-05-19T22:19:42.816Z,14.52
2023-05-19T22:22:45.422Z,14.52
2023-05-19T22:25:47.800Z,14.61
2023-05-19T22:28:50.573Z,14.57
2023-05-19T22:31:53.159Z,14.56
2023-05-19T22:34:56.051Z,14.56
2023-05-19T22:37:58.397Z,14.57
2023-05-19T22:41:01.060Z,14.59
2023-05-19T22:44:03.568Z,14.61
2023-05-19T22:47:06.303Z,14.60
2023-05-19T22:50:12.301Z,14.58
2023-05-19T22:53:14.868Z,14.60
2023-05-19T22:56:17.240Z,14.62
2023-05-19T22:59:19.937Z,14.59
2023-05-19T23:02:22.273Z,14.64
2023-05-19T23:05:25.477Z,14.64
2023-05-19T23:08:27.917Z,14.58
2023-05-19T23:11:30.682Z,14.51
2023-05-19T23:14:32.982Z,14.41
2023-05-19T23:17:36.073Z,14.47
2023-05-19T23:20:38.454Z,14.39
2023-05-19T23:23:41.140Z,14.43
2023-05-19T23:26:46.123Z,14.26
2023-05-19T23:29:49.448Z,14.19
2023-05-19T23:32:53.039Z,14.13
2023-05-19T23:35:55.832Z,14.04
2023-05-19T23:38:58.154Z,14.00
2023-05-19T23:42:00.826Z,13.93
2023-05-19T23:45:03.365Z,13.90
2023-05-19T23:48:06.212Z,13.86
2023-05-19T23:51:08.735Z,13.75
2023-05-19T23:54:11.468Z,13.71
2023-05-19T23:57:13.946Z,13.67
